Time;durP1;ratioP1;P1;durP2;ratioP2;P2;SDS_P1;SDS_P2;PMS_P1;PMS_P2;Temp;Humidity;BMP_temperature;BMP_pressure;BME280_temperature;BME280_humidity;BME280_pressure;Samples;Min_cycle;Max_cycle;Signal;HPM_P1;HPM_P2
2021/04/22 00:08:23;;;;;;;14.37;3.40;;;5.70;91.40;;;;;;5057644;28;20220;-92
2021/04/22 00:10:52;;;;;;;15.50;3.50;;;5.60;91.80;;;;;;5051698;28;20192;-93
2021/04/22 00:13:24;;;;;;;13.63;3.30;;;5.60;91.40;;;;;;5059528;28;20209;-92
2021/04/22 00:15:51;;;;;;;13.67;3.70;;;5.70;91.80;;;;;;5054865;28;20230;-93
2021/04/22 00:18:17;;;;;;;13.40;3.13;;;5.70;91.80;;;;;;5056870;28;20170;-92
2021/04/22 00:20:43;;;;;;;15.00;3.90;;;5.70;91.80;;;;;;5057777;28;20177;-94
2021/04/22 00:23:11;;;;;;;19.57;3.80;;;5.70;91.60;;;;;;5053787;28;20185;-91
2021/04/22 00:25:41;;;;;;;23.43;3.80;;;5.70;91.70;;;;;;5056245;28;20216;-93
2021/04/22 00:28:07;;;;;;;21.57;4.53;;;5.70;91.70;;;;;;5054102;28;20206;-93
2021/04/22 00:30:34;;;;;;;17.83;3.50;;;5.70;91.40;;;;;;5055466;28;20215;-92
2021/04/22 00:33:01;;;;;;;15.57;3.57;;;5.70;91.60;;;;;;5054794;28;20182;-93
2021/04/22 00:35:27;;;;;;;16.40;3.93;;;5.70;91.90;;;;;;5054148;28;20600;-91
2021/04/22 00:37:52;;;;;;;15.93;3.70;;;5.70;91.50;;;;;;5056643;28;20178;-91
2021/04/22 00:40:21;;;;;;;23.30;4.20;;;5.70;91.90;;;;;;5054391;28;20632;-93
2021/04/22 00:42:48;;;;;;;16.10;3.60;;;5.70;92.20;;;;;;5056435;28;20248;-90
2021/04/22 00:45:15;;;;;;;10.90;3.43;;;5.70;91.80;;;;;;5056610;28;20181;-91
2021/04/22 00:47:41;;;;;;;22.70;4.03;;;5.70;92.20;;;;;;5055010;28;20207;-92
2021/04/22 00:50:09;;;;;;;16.70;3.60;;;5.80;92.30;;;;;;5061001;28;20173;-92
2021/04/22 00:52:36;;;;;;;17.23;3.67;;;5.80;92.40;;;;;;5075390;28;20184;-90
2021/04/22 00:55:02;;;;;;;13.53;3.97;;;5.80;91.90;;;;;;5073822;28;20181;-94
2021/04/22 00:57:28;;;;;;;14.73;3.70;;;5.80;92.20;;;;;;5074042;28;20184;-93
2021/04/22 00:59:53;;;;;;;17.80;3.87;;;5.80;92.40;;;;;;5066812;28;20319;-93
2021/04/22 01:02:19;;;;;;;19.90;3.80;;;5.80;92.30;;;;;;5056066;28;20501;-92
2021/04/22 01:04:48;;;;;;;13.07;3.93;;;5.80;92.60;;;;;;5054689;28;20181;-92
2021/04/22 01:07:14;;;;;;;13.23;3.77;;;5.70;92.40;;;;;;5054246;28;20217;-92
2021/04/22 01:09:40;;;;;;;13.87;3.77;;;5.60;92.70;;;;;;5054946;28;20178;-93
2021/04/22 01:12:08;;;;;;;15.13;4.03;;;5.70;92.60;;;;;;5053544;28;20268;-93
2021/04/22 01:14:34;;;;;;;15.73;3.63;;;5.60;92.80;;;;;;5056035;28;20355;-92
2021/04/22 01:16:59;;;;;;;16.93;3.60;;;5.60;92.90;;;;;;5053745;28;20174;-92
2021/04/22 01:19:25;;;;;;;18.17;4.10;;;5.60;93.00;;;;;;5043304;28;20221;-93
2021/04/22 01:21:52;;;;;;;16.27;3.47;;;5.50;93.00;;;;;;5036440;28;20679;-93
2021/04/22 01:24:17;;;;;;;15.97;3.70;;;5.50;93.20;;;;;;5053986;28;20178;-92
2021/04/22 01:26:43;;;;;;;18.07;4.43;;;5.50;93.40;;;;;;5053246;28;20174;-92
2021/04/22 01:29:09;;;;;;;17.30;3.67;;;5.40;93.30;;;;;;5053343;28;20302;-91
2021/04/22 01:31:35;;;;;;;11.77;3.67;;;5.50;93.40;;;;;;5048367;28;20175;-90
2021/04/22 01:34:07;;;;;;;14.77;3.93;;;5.40;93.50;;;;;;5049763;28;20179;-90
2021/04/22 01:36:38;;;;;;;16.37;3.67;;;5.40;93.70;;;;;;5052511;28;20182;-90
2021/04/22 01:39:06;;;;;;;17.00;4.33;;;5.30;93.70;;;;;;5052712;28;20527;-91
2021/04/22 01:41:32;;;;;;;12.13;3.70;;;5.30;94.00;;;;;;5054068;28;20186;-90
2021/04/22 01:43:58;;;;;;;22.47;4.20;;;5.30;94.10;;;;;;5056898;28;20205;-91
2021/04/22 01:46:24;;;;;;;20.53;3.83;;;5.30;94.10;;;;;;5056987;28;20273;-92
2021/04/22 01:48:51;;;;;;;15.33;3.77;;;5.30;94.20;;;;;;5055512;28;20228;-91
2021/04/22 01:51:16;;;;;;;16.80;4.33;;;5.30;94.30;;;;;;5053627;28;20194;-91
2021/04/22 01:53:42;;;;;;;19.57;3.90;;;5.30;94.30;;;;;;5071475;28;20200;-92
2021/04/22 01:56:08;;;;;;;19.63;4.10;;;5.30;94.50;;;;;;5056570;28;20190;-91
2021/04/22 01:58:35;;;;;;;17.90;4.03;;;5.30;94.40;;;;;;5056895;28;20182;-90
2021/04/22 02:01:01;;;;;;;16.90;4.03;;;5.30;94.50;;;;;;5056665;28;20185;-92
2021/04/22 02:03:28;;;;;;;19.20;3.90;;;5.20;94.60;;;;;;5057113;28;20174;-93
2021/04/22 02:05:55;;;;;;;13.80;3.50;;;5.20;94.50;;;;;;5057108;28;20210;-94
2021/04/22 02:08:22;;;;;;;19.60;4.57;;;5.20;94.70;;;;;;5057434;28;20225;-92
2021/04/22 02:10:48;;;;;;;27.27;4.87;;;5.20;94.70;;;;;;5056519;28;20235;-92
2021/04/22 02:13:16;;;;;;;14.70;3.53;;;5.20;95.00;;;;;;5057132;28;20269;-93
2021/04/22 02:15:43;;;;;;;15.37;3.70;;;5.20;94.90;;;;;;5056873;28;20321;-91
2021/04/22 02:18:08;;;;;;;14.70;3.40;;;5.10;95.00;;;;;;5068964;28;20183;-92
2021/04/22 02:20:34;;;;;;;15.30;4.00;;;5.10;95.20;;;;;;5037455;28;20175;-92
2021/04/22 02:23:00;;;;;;;13.90;4.00;;;5.10;95.30;;;;;;5042354;28;20205;-91
2021/04/22 02:25:28;;;;;;;25.27;4.97;;;5.10;95.30;;;;;;5057394;28;20174;-93
2021/04/22 02:27:56;;;;;;;17.97;4.53;;;5.00;95.40;;;;;;5056291;28;20202;-93
2021/04/22 02:30:26;;;;;;;17.43;3.87;;;5.00;95.60;;;;;;5057775;28;20174;-92
2021/04/22 02:32:53;;;;;;;15.97;3.33;;;5.00;95.80;;;;;;5056901;28;20185;-91
2021/04/22 02:35:20;;;;;;;18.17;4.20;;;5.00;95.70;;;;;;5056874;28;20174;-93
2021/04/22 02:37:47;;;;;;;16.37;3.53;;;5.00;95.90;;;;;;5055992;28;20173;-90
2021/04/22 02:40:16;;;;;;;14.90;3.47;;;4.90;96.00;;;;;;5055413;28;20480;-91
2021/04/22 02:42:42;;;;;;;18.97;3.90;;;4.90;96.10;;;;;;5057044;28;20173;-91
2021/04/22 02:45:15;;;;;;;17.53;3.90;;;4.90;96.10;;;;;;5055621;28;20177;-91
2021/04/22 02:47:41;;;;;;;19.40;4.00;;;4.90;96.00;;;;;;5055888;28;20209;-90
2021/04/22 02:50:10;;;;;;;19.83;3.83;;;4.90;96.10;;;;;;5056045;28;20608;-92
2021/04/22 02:52:36;;;;;;;16.30;4.10;;;4.90;96.30;;;;;;5054981;28;20189;-91
2021/04/22 02:55:03;;;;;;;15.53;3.80;;;4.80;96.40;;;;;;5055295;28;20182;-91
2021/04/22 02:57:28;;;;;;;18.87;4.17;;;4.80;96.70;;;;;;5055656;28;20354;-90
2021/04/22 02:59:54;;;;;;;14.73;3.63;;;4.80;96.70;;;;;;5055585;28;20655;-91
2021/04/22 03:02:20;;;;;;;19.93;3.57;;;4.80;96.70;;;;;;5054590;28;20184;-92
2021/04/22 03:04:46;;;;;;;12.63;3.77;;;4.80;96.90;;;;;;5055311;28;20185;-90
2021/04/22 03:07:11;;;;;;;16.77;3.90;;;4.80;96.90;;;;;;5055204;28;20221;-91
2021/04/22 03:09:37;;;;;;;16.07;3.60;;;4.80;97.20;;;;;;5053618;28;20188;-90
2021/04/22 03:12:04;;;;;;;17.43;4.07;;;4.80;97.20;;;;;;5055374;28;20181;-90
2021/04/22 03:14:30;;;;;;;19.47;4.10;;;4.70;97.40;;;;;;5054690;28;20253;-91
2021/04/22 03:16:56;;;;;;;16.83;4.37;;;4.70;97.70;;;;;;5054231;28;20189;-91
2021/04/22 03:19:21;;;;;;;13.50;3.67;;;4.70;97.90;;;;;;5055378;28;20270;-92
2021/04/22 03:21:47;;;;;;;19.17;4.00;;;4.70;98.10;;;;;;5054758;28;20182;-90
2021/04/22 03:24:13;;;;;;;15.23;3.60;;;4.80;98.60;;;;;;5055205;28;20185;-91
2021/04/22 03:26:38;;;;;;;18.30;4.13;;;4.80;98.50;;;;;;5055053;28;20453;-91
2021/04/22 03:29:04;;;;;;;13.90;3.67;;;4.80;98.80;;;;;;5054476;28;20694;-90
2021/04/22 03:31:30;;;;;;;17.43;4.53;;;4.80;98.80;;;;;;5054759;28;20176;-90
2021/04/22 03:33:56;;;;;;;17.13;3.73;;;4.90;98.80;;;;;;5056224;28;20186;-90
2021/04/22 03:36:22;;;;;;;22.63;4.03;;;5.00;98.60;;;;;;5055164;28;20635;-91
2021/04/22 03:38:47;;;;;;;15.73;4.13;;;5.00;98.50;;;;;;5054137;28;20188;-90
2021/04/22 03:41:13;;;;;;;15.07;4.03;;;5.00;98.70;;;;;;5054905;28;20669;-91
2021/04/22 03:43:39;;;;;;;15.87;3.97;;;5.00;98.30;;;;;;5055790;28;20210;-91
2021/04/22 03:46:05;;;;;;;18.60;3.97;;;5.00;98.30;;;;;;5054581;28;20643;-90
2021/04/22 03:48:30;;;;;;;12.80;3.47;;;5.00;97.90;;;;;;5054714;28;20292;-90
2021/04/22 03:50:56;;;;;;;18.10;3.63;;;5.00;97.90;;;;;;5055778;28;20615;-89
2021/04/22 03:53:22;;;;;;;17.13;3.73;;;5.00;98.00;;;;;;5054522;28;20188;-90
2021/04/22 03:55:48;;;;;;;17.90;4.10;;;5.00;98.20;;;;;;5052704;28;20186;-90
2021/04/22 03:58:14;;;;;;;20.87;3.70;;;5.10;98.00;;;;;;5053829;28;20899;-90
2021/04/22 04:00:39;;;;;;;13.43;3.60;;;5.10;98.10;;;;;;5049629;28;20179;-91
2021/04/22 04:03:05;;;;;;;21.87;3.87;;;5.10;98.10;;;;;;5033923;28;20190;-88
2021/04/22 04:05:31;;;;;;;14.50;4.10;;;5.10;98.30;;;;;;5033996;28;20192;-90
2021/04/22 04:07:56;;;;;;;19.10;4.67;;;5.10;98.10;;;;;;5042246;28;20595;-91
2021/04/22 04:10:23;;;;;;;17.63;3.77;;;5.10;98.30;;;;;;5053982;28;20185;-90
2021/04/22 04:12:49;;;;;;;11.40;3.40;;;5.00;98.50;;;;;;5054302;28;20195;-93
2021/04/22 04:15:15;;;;;;;19.47;3.67;;;5.00;98.60;;;;;;5053845;28;20228;-90
2021/04/22 04:17:42;;;;;;;15.77;3.80;;;5.00;98.60;;;;;;5054269;28;20215;-91
2021/04/22 04:20:10;;;;;;;14.00;3.03;;;5.00;98.70;;;;;;5054071;28;20238;-91
2021/04/22 04:22:36;;;;;;;18.60;3.47;;;5.00;98.80;;;;;;5053667;28;20181;-91
2021/04/22 04:25:03;;;;;;;14.63;3.97;;;5.00;98.70;;;;;;5054002;28;20244;-91
2021/04/22 04:27:28;;;;;;;15.27;3.60;;;5.10;98.40;;;;;;5053418;28;20269;-91
2021/04/22 04:29:54;;;;;;;14.43;3.50;;;5.10;98.50;;;;;;5053995;28;20176;-91
2021/04/22 04:32:20;;;;;;;13.97;3.87;;;5.10;98.40;;;;;;5053927;28;20180;-91
2021/04/22 04:34:46;;;;;;;16.07;3.70;;;5.10;98.30;;;;;;5050056;28;20173;-90
2021/04/22 04:37:11;;;;;;;16.40;3.33;;;5.20;98.20;;;;;;5050335;28;20197;-90
2021/04/22 04:39:37;;;;;;;16.63;3.63;;;5.20;98.40;;;;;;5050519;28;20178;-91
2021/04/22 04:42:03;;;;;;;15.87;3.10;;;5.10;98.40;;;;;;5050164;28;20175;-91
2021/04/22 04:44:29;;;;;;;9.93;3.13;;;5.20;98.30;;;;;;5053202;28;20187;-91
2021/04/22 04:46:55;;;;;;;15.67;3.83;;;5.20;98.50;;;;;;5052831;28;20185;-90
2021/04/22 04:49:20;;;;;;;21.10;3.67;;;5.20;98.70;;;;;;5053674;28;20242;-90
2021/04/22 04:51:46;;;;;;;12.30;3.27;;;5.20;98.60;;;;;;5053402;28;20202;-91
2021/04/22 04:54:12;;;;;;;16.63;3.83;;;5.30;98.40;;;;;;5053142;28;20181;-91
2021/04/22 04:56:38;;;;;;;19.20;3.93;;;5.30;98.50;;;;;;5053043;28;20173;-91
2021/04/22 04:59:04;;;;;;;16.87;3.77;;;5.30;98.40;;;;;;5053846;28;20483;-90
2021/04/22 05:01:29;;;;;;;10.67;2.83;;;5.40;98.10;;;;;;5053356;28;20500;-90
2021/04/22 05:03:55;;;;;;;13.47;3.60;;;5.40;98.00;;;;;;5053054;28;20231;-89
2021/04/22 05:06:21;;;;;;;12.57;3.03;;;5.50;97.90;;;;;;5041187;28;20186;-90
2021/04/22 05:08:47;;;;;;;13.90;3.20;;;5.60;98.00;;;;;;5035554;28;20218;-90
2021/04/22 05:11:12;;;;;;;12.70;3.37;;;5.50;98.00;;;;;;5045851;28;20513;-90
2021/04/22 05:13:38;;;;;;;14.20;3.57;;;5.60;97.90;;;;;;5033116;28;20631;-90
2021/04/22 05:16:04;;;;;;;18.63;3.30;;;5.50;98.00;;;;;;5051954;28;20253;-89
2021/04/22 05:18:30;;;;;;;14.17;3.40;;;5.60;98.20;;;;;;5057526;28;20178;-90
2021/04/22 05:20:56;;;;;;;16.00;3.13;;;5.60;98.10;;;;;;5057346;28;20170;-91
2021/04/22 05:23:22;;;;;;;14.80;3.40;;;5.60;98.30;;;;;;5057339;28;20594;-92
2021/04/22 05:25:49;;;;;;;14.77;3.30;;;5.60;98.20;;;;;;5056864;28;20247;-91
2021/04/22 05:28:15;;;;;;;15.70;3.77;;;5.60;98.30;;;;;;5057320;28;20241;-91
2021/04/22 05:30:42;;;;;;;17.40;3.53;;;5.70;98.20;;;;;;5056768;28;20237;-92
2021/04/22 05:33:08;;;;;;;16.87;3.60;;;5.80;98.30;;;;;;5057079;28;20178;-91
2021/04/22 05:35:35;;;;;;;15.87;3.17;;;5.70;98.30;;;;;;5057227;28;20630;-91
2021/04/22 05:38:02;;;;;;;17.10;3.33;;;5.80;98.30;;;;;;5057843;28;20177;-91
2021/04/22 05:40:28;;;;;;;14.30;3.63;;;5.80;98.10;;;;;;5057659;28;20182;-90
2021/04/22 05:42:54;;;;;;;14.07;3.37;;;5.80;98.20;;;;;;5059036;28;20162;-91
2021/04/22 05:45:19;;;;;;;13.07;3.57;;;5.90;98.20;;;;;;5057781;28;20184;-91
2021/04/22 05:47:46;;;;;;;19.13;3.33;;;5.80;98.40;;;;;;5058629;28;20209;-90
2021/04/22 05:50:14;;;;;;;15.77;3.87;;;5.90;98.50;;;;;;5057348;28;20277;-90
2021/04/22 05:52:40;;;;;;;16.40;3.93;;;6.00;98.40;;;;;;5058265;28;20212;-91
2021/04/22 05:55:12;;;;;;;20.70;4.20;;;6.00;98.60;;;;;;5056653;28;20181;-91
2021/04/22 05:57:37;;;;;;;19.63;3.93;;;6.00;98.40;;;;;;5056748;28;20174;-90
2021/04/22 06:00:06;;;;;;;17.87;3.17;;;6.00;98.50;;;;;;5057055;28;20638;-92
2021/04/22 06:02:32;;;;;;;19.27;3.30;;;6.10;98.20;;;;;;5056959;28;20526;-94
2021/04/22 06:04:58;;;;;;;16.70;3.13;;;6.20;98.00;;;;;;5061157;28;20162;-95
2021/04/22 06:07:25;;;;;;;14.33;3.70;;;6.20;98.00;;;;;;5060298;28;20205;-95
2021/04/22 06:09:51;;;;;;;15.10;3.37;;;6.30;98.20;;;;;;5060057;28;20530;-92
2021/04/22 06:12:16;;;;;;;11.27;2.73;;;6.40;97.80;;;;;;5062467;28;20165;-93
2021/04/22 06:14:42;;;;;;;16.70;3.27;;;6.40;97.70;;;;;;5060158;28;20225;-93
2021/04/22 06:17:08;;;;;;;17.87;3.07;;;6.40;97.50;;;;;;5059818;28;20201;-94
2021/04/22 06:19:34;;;;;;;15.73;3.00;;;6.50;97.80;;;;;;5057895;28;20174;-96
2021/04/22 06:21:59;;;;;;;15.47;3.40;;;6.60;97.70;;;;;;5057881;28;20185;-96
2021/04/22 06:24:25;;;;;;;16.13;3.70;;;6.60;98.20;;;;;;5056427;28;20570;-95
2021/04/22 06:26:55;;;;;;;16.90;4.07;;;6.70;97.20;;;;;;5056632;28;20491;-96
2021/04/22 06:29:21;;;;;;;10.77;3.30;;;6.70;96.70;;;;;;5057954;28;20186;-96
2021/04/22 06:31:47;;;;;;;17.70;3.90;;;6.80;97.50;;;;;;5058026;28;20185;-94
2021/04/22 06:34:14;;;;;;;13.33;3.17;;;6.80;97.10;;;;;;5057279;28;20212;-95
2021/04/22 06:36:42;;;;;;;17.47;3.33;;;6.80;97.40;;;;;;5057585;28;20231;-94
2021/04/22 06:39:08;;;;;;;12.00;3.63;;;6.80;96.80;;;;;;5056664;28;20182;-94
2021/04/22 06:41:34;;;;;;;14.80;3.30;;;6.90;96.70;;;;;;5057073;28;20193;-94
2021/04/22 06:44:00;;;;;;;14.93;3.50;;;7.00;96.40;;;;;;5058171;28;20185;-94
2021/04/22 06:46:26;;;;;;;13.63;3.40;;;7.00;96.50;;;;;;5057018;28;20181;-95
2021/04/22 06:48:52;;;;;;;11.23;3.00;;;7.10;96.50;;;;;;5042462;28;20222;-95
2021/04/22 06:51:18;;;;;;;15.03;3.47;;;7.10;96.20;;;;;;5039424;28;20193;-94
2021/04/22 06:53:44;;;;;;;13.83;3.37;;;7.20;96.10;;;;;;5041496;28;20178;-94
2021/04/22 06:56:09;;;;;;;17.07;4.13;;;7.20;95.90;;;;;;5038346;28;20232;-95
2021/04/22 06:58:35;;;;;;;16.20;3.63;;;7.30;95.90;;;;;;5038211;28;20190;-95
2021/04/22 07:01:01;;;;;;;15.17;3.20;;;7.40;94.90;;;;;;5038287;28;20181;-95
2021/04/22 07:03:27;;;;;;;11.90;3.17;;;7.50;95.70;;;;;;5037529;28;20167;-96
2021/04/22 07:05:53;;;;;;;16.70;4.13;;;7.70;95.20;;;;;;5037020;28;20170;-96
2021/04/22 07:08:18;;;;;;;10.17;2.87;;;7.80;95.30;;;;;;5035724;28;20724;-93
2021/04/22 07:10:44;;;;;;;15.30;3.53;;;7.80;94.20;;;;;;5049180;28;20493;-94
2021/04/22 07:13:11;;;;;;;16.33;3.50;;;7.80;94.30;;;;;;5036854;28;20174;-95
2021/04/22 07:15:37;;;;;;;11.17;2.93;;;7.80;94.70;;;;;;5035183;28;20229;-92
2021/04/22 07:18:08;;;;;;;13.03;2.63;;;7.90;94.00;;;;;;5055915;28;20181;-95
2021/04/22 07:20:34;;;;;;;11.03;2.97;;;7.70;94.50;;;;;;5056727;28;20158;-94
2021/04/22 07:23:00;;;;;;;11.20;2.57;;;7.70;94.30;;;;;;5057392;28;20185;-94
2021/04/22 07:25:30;;;;;;;12.33;2.60;;;7.80;94.80;;;;;;5059809;28;20177;-96
2021/04/22 07:27:57;;;;;;;15.53;3.33;;;7.90;94.60;;;;;;5056747;28;20286;-95
2021/04/22 07:30:23;;;;;;;11.17;2.70;;;8.10;95.00;;;;;;5054045;28;20197;-94
2021/04/22 07:32:50;;;;;;;14.67;2.80;;;8.10;93.60;;;;;;5054251;28;20208;-95
2021/04/22 07:35:18;;;;;;;16.77;3.20;;;8.00;94.20;;;;;;5054390;28;20297;-94
2021/04/22 07:37:45;;;;;;;16.03;3.20;;;8.00;93.40;;;;;;5056780;28;20237;-95
2021/04/22 07:40:14;;;;;;;12.00;2.73;;;7.90;94.20;;;;;;5054633;28;20174;-95
2021/04/22 07:42:41;;;;;;;12.43;2.97;;;8.10;93.70;;;;;;5057104;28;20166;-94
2021/04/22 07:45:08;;;;;;;11.93;2.90;;;8.20;93.40;;;;;;5055925;28;20173;-92
2021/04/22 07:47:34;;;;;;;16.77;3.03;;;8.10;93.20;;;;;;5056854;28;20240;-93
2021/04/22 07:50:13;;;;;;;10.73;2.90;;;7.90;93.50;;;;;;5060451;28;20213;-96
2021/04/22 07:55:09;;;;;;;21.80;2.97;;;7.80;94.00;;;;;;5053488;28;20209;-93
2021/04/22 07:57:38;;;;;;;13.50;2.93;;;7.80;93.80;;;;;;5053863;28;20174;-93
2021/04/22 08:00:10;;;;;;;16.43;3.00;;;7.70;94.20;;;;;;5053760;28;20510;-91
2021/04/22 08:02:36;;;;;;;15.30;3.73;;;7.80;94.60;;;;;;5039943;28;20268;-94
2021/04/22 08:05:03;;;;;;;10.57;2.77;;;7.80;94.60;;;;;;5034070;28;20630;-93
2021/04/22 08:07:29;;;;;;;8.77;2.53;;;7.80;94.90;;;;;;5033738;28;20195;-92
2021/04/22 08:09:55;;;;;;;9.50;2.73;;;7.80;94.80;;;;;;5034598;28;20170;-94
2021/04/22 08:12:21;;;;;;;10.70;2.70;;;7.80;94.50;;;;;;5033472;28;20541;-91
2021/04/22 08:14:47;;;;;;;10.13;2.60;;;7.90;95.20;;;;;;5033397;28;20254;-92
2021/04/22 08:17:15;;;;;;;5.83;1.97;;;8.00;95.80;;;;;;5033420;28;20599;-93
2021/04/22 08:19:41;;;;;;;15.80;3.13;;;8.10;95.40;;;;;;5033361;28;20641;-93
2021/04/22 08:22:10;;;;;;;13.57;2.20;;;8.20;94.90;;;;;;5033459;28;20199;-93
2021/04/22 08:24:35;;;;;;;10.60;3.10;;;8.20;94.70;;;;;;5033548;28;20167;-91
2021/04/22 08:27:01;;;;;;;18.67;2.80;;;8.20;94.50;;;;;;5033589;28;20189;-91
2021/04/22 08:29:27;;;;;;;13.10;2.97;;;8.10;95.30;;;;;;5033612;28;20527;-93
2021/04/22 08:31:53;;;;;;;14.73;2.80;;;8.20;94.40;;;;;;5033232;28;20282;-93
2021/04/22 08:34:19;;;;;;;11.87;2.73;;;8.20;95.00;;;;;;5033362;28;20250;-92
2021/04/22 08:36:45;;;;;;;15.37;3.73;;;8.20;95.00;;;;;;5033229;28;20163;-92
2021/04/22 08:39:12;;;;;;;12.73;2.70;;;8.20;94.80;;;;;;5033220;28;20167;-91
2021/04/22 08:41:39;;;;;;;12.73;2.90;;;8.10;95.40;;;;;;5033178;28;20619;-92
2021/04/22 08:44:06;;;;;;;11.80;2.70;;;8.10;95.30;;;;;;5050221;28;20194;-93
2021/04/22 08:46:35;;;;;;;11.93;2.63;;;8.20;95.00;;;;;;5032950;28;20710;-93
2021/04/22 08:49:01;;;;;;;5.77;1.90;;;8.30;94.70;;;;;;5032943;28;20194;-93
2021/04/22 08:51:28;;;;;;;10.83;2.40;;;8.50;94.10;;;;;;5032071;28;20186;-92
2021/04/22 08:53:53;;;;;;;11.27;2.60;;;8.70;93.80;;;;;;5032908;28;20218;-92
2021/04/22 08:56:20;;;;;;;8.60;2.53;;;8.90;93.00;;;;;;5032692;28;20220;-93
2021/04/22 08:58:47;;;;;;;12.87;2.70;;;9.00;92.90;;;;;;5033048;28;20257;-93
2021/04/22 09:01:16;;;;;;;16.93;2.30;;;9.30;93.10;;;;;;5032650;28;20202;-93
2021/04/22 09:03:45;;;;;;;10.53;2.40;;;9.30;92.20;;;;;;5032794;28;20534;-90
2021/04/22 09:06:11;;;;;;;12.30;2.73;;;9.30;92.30;;;;;;5033019;28;20210;-92
2021/04/22 09:08:39;;;;;;;7.93;2.20;;;9.40;92.70;;;;;;5032714;28;20661;-92
2021/04/22 09:11:06;;;;;;;10.73;2.67;;;9.50;92.60;;;;;;5032659;28;20163;-92
2021/04/22 09:13:34;;;;;;;10.57;2.57;;;9.50;92.50;;;;;;5032826;28;20630;-94
2021/04/22 09:16:11;;;;;;;11.47;2.60;;;9.30;91.20;;;;;;5032904;28;20609;-92
2021/04/22 09:18:50;;;;;;;7.30;2.23;;;9.10;92.50;;;;;;5033074;28;20611;-92
2021/04/22 09:21:23;;;;;;;7.53;2.20;;;9.10;92.30;;;;;;5032551;28;20216;-92
2021/04/22 09:24:02;;;;;;;20.97;3.23;;;9.20;91.80;;;;;;5032869;28;20166;-92
2021/04/22 09:26:52;;;;;;;12.03;2.10;;;9.30;92.40;;;;;;5032870;28;20172;-93
2021/04/22 09:29:46;;;;;;;8.43;2.13;;;9.40;92.10;;;;;;5032966;28;20191;-95
2021/04/22 09:32:18;;;;;;;10.73;2.07;;;9.40;91.00;;;;;;5035224;28;20224;-94
2021/04/22 09:34:55;;;;;;;10.10;2.10;;;9.50;90.00;;;;;;5034975;28;20205;-94
2021/04/22 09:37:24;;;;;;;10.37;2.13;;;9.50;90.00;;;;;;5033133;28;20285;-91
2021/04/22 09:39:51;;;;;;;13.57;2.27;;;9.60;90.10;;;;;;5032654;28;20273;-91
2021/04/22 09:42:19;;;;;;;10.40;2.83;;;9.90;90.30;;;;;;5032356;28;20217;-91
2021/04/22 09:44:47;;;;;;;11.10;2.47;;;10.00;89.00;;;;;;5032654;28;20167;-93
2021/04/22 09:47:18;;;;;;;10.13;1.90;;;10.00;88.00;;;;;;5032500;28;20167;-92
2021/04/22 09:49:47;;;;;;;8.37;2.00;;;10.00;86.40;;;;;;5032836;28;20166;-93
2021/04/22 09:52:15;;;;;;;10.60;2.33;;;10.00;86.90;;;;;;5032563;28;20199;-94
2021/04/22 09:54:44;;;;;;;12.30;2.40;;;10.00;88.40;;;;;;5031397;28;20218;-94
2021/04/22 09:57:19;;;;;;;10.33;2.50;;;10.10;88.40;;;;;;5031476;28;20162;-92
2021/04/22 09:59:45;;;;;;;13.30;2.37;;;10.20;89.30;;;;;;5031682;28;20167;-92
2021/04/22 10:02:11;;;;;;;10.87;2.30;;;10.30;85.80;;;;;;5031597;28;20191;-94
2021/04/22 10:04:39;;;;;;;10.50;2.17;;;10.40;87.90;;;;;;5035009;28;20250;-92
2021/04/22 10:07:36;;;;;;;9.57;2.47;;;10.30;85.60;;;;;;5034508;28;20163;-93
2021/04/22 10:10:20;;;;;;;13.57;2.30;;;9.90;86.60;;;;;;5034280;28;20206;-93
2021/04/22 10:12:46;;;;;;;8.07;2.37;;;9.70;87.80;;;;;;5034550;28;20602;-92
2021/04/22 10:15:18;;;;;;;9.30;2.43;;;9.70;90.50;;;;;;5034317;28;20193;-94
2021/04/22 10:18:00;;;;;;;11.53;2.67;;;9.90;89.30;;;;;;5034562;28;20167;-93
2021/04/22 10:20:27;;;;;;;12.27;2.33;;;10.00;84.50;;;;;;5034704;28;20237;-93
2021/04/22 10:22:54;;;;;;;11.23;2.40;;;9.90;84.70;;;;;;5034950;28;20283;-92
2021/04/22 10:25:32;;;;;;;11.57;2.33;;;10.00;85.60;;;;;;5035003;28;20182;-92
2021/04/22 10:28:06;;;;;;;8.00;2.50;;;10.10;85.00;;;;;;5034481;28;20194;-93
2021/04/22 10:30:34;;;;;;;11.83;2.63;;;10.20;87.00;;;;;;5035179;28;20638;-94
2021/04/22 10:33:03;;;;;;;13.10;2.67;;;10.20;88.20;;;;;;5034373;28;20194;-93
2021/04/22 10:35:30;;;;;;;12.63;2.93;;;10.20;86.00;;;;;;5034580;28;20166;-93
2021/04/22 10:37:57;;;;;;;10.17;2.90;;;10.00;88.70;;;;;;5034000;28;20175;-92
2021/04/22 10:40:26;;;;;;;12.90;2.67;;;9.90;89.50;;;;;;5034218;28;20166;-94
2021/04/22 10:42:58;;;;;;;14.57;2.73;;;10.10;89.10;;;;;;5034114;28;20206;-91
2021/04/22 10:45:25;;;;;;;12.87;2.30;;;10.40;86.90;;;;;;5034076;28;20190;-92
2021/04/22 10:47:51;;;;;;;14.73;2.80;;;10.50;86.70;;;;;;5034013;28;20198;-91
2021/04/22 10:50:23;;;;;;;12.67;2.87;;;10.60;86.30;;;;;;5034005;28;20163;-93
2021/04/22 10:52:52;;;;;;;16.40;2.93;;;10.80;84.30;;;;;;5006725;28;770403;-93
2021/04/22 10:55:21;;;;;;;13.30;2.60;;;10.90;82.20;;;;;;5052034;28;20221;-91
2021/04/22 10:57:48;;;;;;;13.23;2.30;;;10.80;82.80;;;;;;5035057;28;20178;-92
2021/04/22 11:00:15;;;;;;;8.83;2.73;;;10.50;84.70;;;;;;5034802;28;20184;-92
2021/04/22 11:02:54;;;;;;;6.33;2.50;;;10.40;85.50;;;;;;5034625;28;20209;-93
2021/04/22 11:05:29;;;;;;;13.83;2.47;;;10.40;83.90;;;;;;5035009;28;20262;-95
2021/04/22 11:08:06;;;;;;;13.20;2.40;;;10.60;83.60;;;;;;5034800;28;20206;-94
2021/04/22 11:10:45;;;;;;;5.53;2.50;;;11.00;83.60;;;;;;5034853;28;20228;-94
2021/04/22 11:13:18;;;;;;;8.40;2.20;;;11.20;76.00;;;;;;5034734;28;20201;-94
2021/04/22 11:16:04;;;;;;;12.63;2.30;;;11.10;77.70;;;;;;5034000;28;20216;-92
2021/04/22 11:18:47;;;;;;;11.87;3.00;;;11.20;76.70;;;;;;5035025;28;20668;-93
2021/04/22 11:21:27;;;;;;;9.23;2.27;;;11.40;79.40;;;;;;5035174;28;20205;-95
2021/04/22 11:23:55;;;;;;;9.30;2.53;;;11.70;79.70;;;;;;5032164;28;20171;-93
2021/04/22 11:26:33;;;;;;;10.87;2.57;;;11.70;80.10;;;;;;5015206;28;20597;-91
2021/04/22 11:29:19;;;;;;;8.23;2.27;;;11.60;78.80;;;;;;5014704;28;20285;-93
2021/04/22 11:31:54;;;;;;;9.40;2.40;;;11.70;75.20;;;;;;5023030;28;20198;-93
2021/04/22 11:34:34;;;;;;;15.90;2.50;;;11.60;75.20;;;;;;5034574;28;20522;-92
2021/04/22 11:37:04;;;;;;;8.83;2.23;;;11.70;76.40;;;;;;5034424;28;20245;-95
2021/04/22 11:39:32;;;;;;;13.80;2.70;;;12.00;72.00;;;;;;5034583;28;20257;-92
2021/04/22 11:42:01;;;;;;;10.83;3.20;;;12.10;72.80;;;;;;5034621;28;20229;-93
2021/04/22 11:44:38;;;;;;;10.07;2.40;;;11.80;71.40;;;;;;5034570;28;20193;-92
2021/04/22 11:47:27;;;;;;;11.60;2.77;;;11.60;75.40;;;;;;5034202;28;20170;-91
2021/04/22 11:50:11;;;;;;;14.10;2.83;;;11.80;77.80;;;;;;5034359;28;20175;-93
2021/04/22 11:52:46;;;;;;;10.57;3.00;;;11.80;74.20;;;;;;5034564;28;20190;-93
2021/04/22 11:55:22;;;;;;;8.07;2.20;;;11.60;73.30;;;;;;5034306;28;20677;-91
2021/04/22 11:58:09;;;;;;;8.60;2.53;;;11.70;71.60;;;;;;5033918;28;20569;-92
2021/04/22 12:03:54;;;;;;;13.93;3.00;;;11.70;72.30;;;;;;5036002;28;20192;-93
2021/04/22 12:06:55;;;;;;;9.63;2.40;;;11.60;75.50;;;;;;5034244;28;20170;-94
2021/04/22 12:09:29;;;;;;;11.57;3.03;;;11.60;74.10;;;;;;5033742;28;20210;-93
2021/04/22 12:12:05;;;;;;;10.97;2.63;;;11.60;73.50;;;;;;5033676;28;20237;-93
2021/04/22 12:14:30;;;;;;;10.43;2.53;;;11.60;75.20;;;;;;5033802;28;20170;-93
2021/04/22 12:17:34;;;;;;;15.60;2.60;;;11.70;72.10;;;;;;5034120;28;20533;-95
2021/04/22 12:20:22;;;;;;;11.47;2.13;;;11.50;68.50;;;;;;5034471;28;20293;-94
2021/04/22 12:22:48;;;;;;;9.60;2.57;;;11.30;68.50;;;;;;5033900;28;20226;-93
2021/04/22 12:25:21;;;;;;;9.83;2.17;;;11.20;69.90;;;;;;5033796;28;20175;-93
2021/04/22 12:27:51;;;;;;;9.17;2.50;;;11.10;70.10;;;;;;5033729;28;20197;-94
2021/04/22 12:30:30;;;;;;;13.90;2.50;;;11.10;70.80;;;;;;5033509;28;20694;-92
2021/04/22 12:33:10;;;;;;;10.33;2.20;;;11.20;67.80;;;;;;5033295;28;20194;-93
2021/04/22 12:35:37;;;;;;;14.47;2.77;;;11.30;67.40;;;;;;5033529;28;20162;-93
2021/04/22 12:38:22;;;;;;;9.83;2.43;;;11.40;69.50;;;;;;5033476;28;20257;-93
2021/04/22 12:41:10;;;;;;;10.50;2.20;;;11.40;68.80;;;;;;5033377;28;20166;-94
2021/04/22 12:43:54;;;;;;;10.30;2.93;;;11.40;70.00;;;;;;5033058;28;20163;-93
2021/04/22 12:46:22;;;;;;;10.87;2.40;;;11.40;70.30;;;;;;5033345;28;20166;-94
2021/04/22 12:48:57;;;;;;;9.73;2.40;;;11.50;68.90;;;;;;5033394;28;20565;-94
2021/04/22 12:51:38;;;;;;;11.50;2.90;;;11.40;69.30;;;;;;5033132;28;20214;-93
2021/04/22 12:54:05;;;;;;;9.00;2.63;;;11.40;69.80;;;;;;5033600;28;20292;-93
2021/04/22 12:56:33;;;;;;;12.40;2.77;;;11.30;67.90;;;;;;5033815;28;20174;-93
2021/04/22 12:59:05;;;;;;;11.23;3.30;;;11.20;68.50;;;;;;5033991;28;20627;-94
2021/04/22 13:01:38;;;;;;;8.27;2.80;;;11.10;69.00;;;;;;5033426;28;20247;-94
2021/04/22 13:04:04;;;;;;;12.80;2.93;;;11.00;70.60;;;;;;5034324;28;20174;-94
2021/04/22 13:06:33;;;;;;;9.93;2.57;;;11.00;70.60;;;;;;5033355;28;20182;-93